createdAt,value
2018-05-13T00:00:20.240Z,4.27
2018-05-13T00:02:47.852Z,4.37
2018-05-13T00:05:15.574Z,4.37
2018-05-13T00:07:43.155Z,3.90
2018-05-13T00:10:10.909Z,3.80
2018-05-13T00:12:38.560Z,4.67
2018-05-13T00:15:06.210Z,4.53
2018-05-13T00:17:33.850Z,3.60
2018-05-13T00:20:01.550Z,4.30
2018-05-13T00:22:29.264Z,4.13
2018-05-13T00:24:56.867Z,4.10
2018-05-13T00:27:24.535Z,3.87
2018-05-13T00:29:52.200Z,3.93
2018-05-13T00:32:19.876Z,3.20
2018-05-13T00:34:47.662Z,4.13
2018-05-13T00:37:15.321Z,4.27
2018-05-13T00:39:42.980Z,3.97
2018-05-13T00:42:10.677Z,3.53
2018-05-13T00:44:38.345Z,4.93
2018-05-13T00:47:05.951Z,3.77
2018-05-13T00:49:33.567Z,4.57
2018-05-13T00:52:01.233Z,3.90
2018-05-13T00:54:40.599Z,4.20
2018-05-13T00:57:08.320Z,5.10
2018-05-13T00:59:35.911Z,4.00
2018-05-13T01:02:03.560Z,4.30
2018-05-13T01:04:31.152Z,4.37
2018-05-13T01:06:58.803Z,5.57
2018-05-13T01:09:27.374Z,5.73
2018-05-13T01:11:55.044Z,3.73
2018-05-13T01:14:22.744Z,4.23
2018-05-13T01:16:50.461Z,4.70
2018-05-13T01:19:18.105Z,4.80
2018-05-13T01:21:45.789Z,4.57
2018-05-13T01:24:13.432Z,3.90
2018-05-13T01:26:41.104Z,4.97
2018-05-13T01:29:08.712Z,4.63
2018-05-13T01:31:36.467Z,4.80
2018-05-13T01:34:04.107Z,4.97
2018-05-13T01:36:31.754Z,5.30
2018-05-13T01:38:59.366Z,5.23
2018-05-13T01:41:27.038Z,5.20
2018-05-13T01:43:54.669Z,4.30
2018-05-13T01:46:22.313Z,4.50
2018-05-13T01:48:50.998Z,4.83
2018-05-13T01:51:18.653Z,5.77
2018-05-13T01:53:46.325Z,4.20
2018-05-13T01:56:14.108Z,4.83
2018-05-13T01:58:41.763Z,4.17
2018-05-13T02:01:09.344Z,4.33
2018-05-13T02:03:36.977Z,4.93
2018-05-13T02:06:04.684Z,4.90
2018-05-13T02:08:32.306Z,4.17
2018-05-13T02:11:00.014Z,6.63
2018-05-13T02:13:27.629Z,5.50
2018-05-13T02:15:55.229Z,4.63
2018-05-13T02:18:22.881Z,4.90
2018-05-13T02:20:50.519Z,4.50
2018-05-13T02:23:18.176Z,4.83
2018-05-13T02:25:45.829Z,3.90
2018-05-13T02:28:13.494Z,4.30
2018-05-13T02:30:41.085Z,4.10
2018-05-13T02:33:08.713Z,5.17
2018-05-13T02:35:36.334Z,4.33
2018-05-13T02:38:04.040Z,4.87
2018-05-13T02:40:31.707Z,4.70
2018-05-13T02:42:59.401Z,4.13
2018-05-13T02:45:27.124Z,5.20
2018-05-13T02:47:54.766Z,4.10
2018-05-13T02:50:22.423Z,4.67
2018-05-13T02:52:50.073Z,5.30
2018-05-13T02:55:17.739Z,5.40
2018-05-13T02:57:45.448Z,5.30
2018-05-13T03:00:13.114Z,6.10
2018-05-13T03:02:40.867Z,5.10
2018-05-13T03:05:08.561Z,5.20
2018-05-13T03:07:36.972Z,5.80
2018-05-13T03:10:04.683Z,6.03
2018-05-13T03:12:32.280Z,5.40
2018-05-13T03:14:59.938Z,5.87
2018-05-13T03:17:27.655Z,6.17
2018-05-13T03:19:55.353Z,4.80
2018-05-13T03:22:23.004Z,5.63
2018-05-13T03:24:50.987Z,5.63
2018-05-13T03:27:18.658Z,5.50
2018-05-13T03:29:46.265Z,5.27
2018-05-13T03:32:14.143Z,4.50
2018-05-13T03:34:41.770Z,5.50
2018-05-13T03:37:09.444Z,5.60
2018-05-13T03:39:37.049Z,4.10
2018-05-13T03:42:04.707Z,5.97
2018-05-13T03:44:32.355Z,5.47
2018-05-13T03:47:00.012Z,5.90
2018-05-13T03:49:27.600Z,4.63
2018-05-13T03:51:55.294Z,5.20
2018-05-13T03:54:23.084Z,4.93
2018-05-13T03:56:51.027Z,5.53
2018-05-13T03:59:18.865Z,6.43
2018-05-13T04:01:46.463Z,5.43
2018-05-13T04:04:14.127Z,5.73
2018-05-13T04:06:42.688Z,5.87
2018-05-13T04:09:21.941Z,5.73
2018-05-13T04:12:01.237Z,6.03
2018-05-13T04:14:40.461Z,5.57
2018-05-13T04:17:08.159Z,5.67
2018-05-13T04:19:35.786Z,5.10
2018-05-13T04:22:03.421Z,5.30
2018-05-13T04:24:31.051Z,6.37
2018-05-13T04:26:58.719Z,5.80
2018-05-13T04:29:26.368Z,5.60
2018-05-13T04:31:53.969Z,5.17
2018-05-13T04:34:21.611Z,5.50
2018-05-13T04:36:49.734Z,5.13
2018-05-13T04:39:17.341Z,6.13
2018-05-13T04:41:45.029Z,4.03
2018-05-13T04:44:12.673Z,5.73
2018-05-13T04:46:40.395Z,5.27
2018-05-13T04:49:07.988Z,4.30
2018-05-13T04:51:35.620Z,7.10
2018-05-13T04:54:03.262Z,5.90
2018-05-13T04:56:30.938Z,5.50
2018-05-13T04:58:58.598Z,5.30
2018-05-13T05:01:27.424Z,5.97
2018-05-13T05:03:55.105Z,6.07
2018-05-13T05:06:22.776Z,5.60
2018-05-13T05:08:50.490Z,6.43
2018-05-13T05:11:18.073Z,6.20
2018-05-13T05:13:45.749Z,7.07
2018-05-13T05:16:13.350Z,18.20
2018-05-13T05:18:41.001Z,7.40
2018-05-13T05:21:08.691Z,11.50
2018-05-13T05:23:36.370Z,8.20
2018-05-13T05:26:04.110Z,7.70
2018-05-13T05:28:31.704Z,7.57
2018-05-13T05:30:59.347Z,5.70
2018-05-13T05:33:26.998Z,7.80
2018-05-13T05:35:54.640Z,7.70
2018-05-13T05:38:22.351Z,7.87
2018-05-13T05:40:49.964Z,7.73
2018-05-13T05:43:17.686Z,7.43
2018-05-13T05:45:45.349Z,6.70
2018-05-13T05:48:13.019Z,7.60
2018-05-13T05:50:40.979Z,7.87
2018-05-13T05:53:08.589Z,7.67
2018-05-13T05:55:36.271Z,8.17
2018-05-13T05:58:03.935Z,7.23
2018-05-13T06:00:31.585Z,7.93
2018-05-13T06:02:59.304Z,6.77
2018-05-13T06:05:26.962Z,7.07
2018-05-13T06:07:54.654Z,6.97
2018-05-13T06:10:22.296Z,6.87
2018-05-13T06:12:50.011Z,6.70
2018-05-13T06:15:17.698Z,6.30
2018-05-13T06:17:45.326Z,8.50
2018-05-13T06:20:12.974Z,7.73
2018-05-13T06:22:40.620Z,8.93
2018-05-13T06:25:09.228Z,7.80
2018-05-13T06:27:36.819Z,6.60
2018-05-13T06:30:04.562Z,7.97
2018-05-13T06:32:33.245Z,8.43
2018-05-13T06:35:01.288Z,7.90
2018-05-13T06:37:29.052Z,8.13
2018-05-13T06:39:56.750Z,9.30
2018-05-13T06:42:24.465Z,10.50
2018-05-13T06:44:52.120Z,8.70
2018-05-13T06:47:20.039Z,9.10
2018-05-13T06:49:47.670Z,10.67
2018-05-13T06:52:15.354Z,9.90
2018-05-13T06:54:43.030Z,9.93
2018-05-13T06:57:10.837Z,10.93
2018-05-13T06:59:38.451Z,10.73
2018-05-13T07:02:06.486Z,12.10
2018-05-13T07:04:34.206Z,10.83
2018-05-13T07:07:01.908Z,10.87
2018-05-13T07:09:29.605Z,10.30
2018-05-13T07:11:57.267Z,10.20
2018-05-13T07:14:24.928Z,12.40
2018-05-13T07:16:52.624Z,11.90
2018-05-13T07:19:20.259Z,11.80
2018-05-13T07:21:47.935Z,11.90
2018-05-13T07:24:15.564Z,10.47
2018-05-13T07:26:48.526Z,11.00
2018-05-13T07:29:16.242Z,10.00
2018-05-13T07:31:43.893Z,12.17
2018-05-13T07:34:11.610Z,11.00
2018-05-13T07:36:39.279Z,12.10
2018-05-13T07:39:06.944Z,11.60
2018-05-13T07:41:34.635Z,11.53
2018-05-13T07:44:03.096Z,11.30
2018-05-13T07:46:30.881Z,11.40
2018-05-13T07:48:58.650Z,10.90
2018-05-13T07:51:26.329Z,11.20
2018-05-13T07:53:54.014Z,10.90
2018-05-13T07:56:21.697Z,11.60
2018-05-13T07:58:49.825Z,10.90
2018-05-13T08:01:17.452Z,9.50
2018-05-13T08:03:45.117Z,11.20
2018-05-13T08:06:12.837Z,9.53
2018-05-13T08:08:40.441Z,9.37
2018-05-13T08:11:08.049Z,9.73
2018-05-13T08:13:35.729Z,10.57
2018-05-13T08:16:03.376Z,10.17
2018-05-13T08:18:31.020Z,9.57
2018-05-13T08:20:58.682Z,10.10
2018-05-13T08:23:26.328Z,8.93
2018-05-13T08:25:54.060Z,9.20
2018-05-13T08:28:21.721Z,6.80
2018-05-13T08:30:49.380Z,8.80
2018-05-13T08:33:17.029Z,10.63
2018-05-13T08:35:44.727Z,9.80
2018-05-13T08:38:12.443Z,7.53
2018-05-13T08:40:40.172Z,10.53
2018-05-13T08:43:07.853Z,9.67
2018-05-13T08:45:35.557Z,9.77
2018-05-13T08:48:03.441Z,10.20
2018-05-13T08:50:31.189Z,10.73
2018-05-13T08:52:58.896Z,9.43
2018-05-13T08:55:26.633Z,8.33
2018-05-13T08:57:54.311Z,8.23
2018-05-13T09:00:22.425Z,7.33
2018-05-13T09:02:50.148Z,7.93
2018-05-13T09:05:18.470Z,7.87
2018-05-13T09:07:46.133Z,7.13
2018-05-13T09:10:14.862Z,7.10
2018-05-13T09:12:42.568Z,8.17
2018-05-13T09:15:10.232Z,6.60
2018-05-13T09:17:37.858Z,6.83
2018-05-13T09:20:05.560Z,6.77
2018-05-13T09:22:33.189Z,6.27
2018-05-13T09:25:00.872Z,5.90
2018-05-13T09:27:28.495Z,6.17
2018-05-13T09:29:56.239Z,6.03
2018-05-13T09:32:23.980Z,7.10
2018-05-13T09:34:51.649Z,6.40
2018-05-13T09:37:19.313Z,5.77
2018-05-13T09:39:46.973Z,5.73
2018-05-13T09:42:14.693Z,6.43
2018-05-13T09:44:42.331Z,7.23
2018-05-13T09:47:10.002Z,5.10
2018-05-13T09:49:37.780Z,6.10
2018-05-13T09:52:05.416Z,6.03
2018-05-13T09:54:33.062Z,5.60
2018-05-13T09:57:00.657Z,5.10
2018-05-13T09:59:28.309Z,5.33
2018-05-13T10:01:55.941Z,5.40
2018-05-13T10:04:24.710Z,5.67
2018-05-13T10:06:52.390Z,5.40
2018-05-13T10:09:20.059Z,6.30
2018-05-13T10:11:47.768Z,6.10
2018-05-13T10:14:15.366Z,6.23
2018-05-13T10:16:42.951Z,5.13
2018-05-13T10:19:10.612Z,5.30
2018-05-13T10:21:38.222Z,5.93
2018-05-13T10:24:05.905Z,5.57
2018-05-13T10:26:33.629Z,5.27
2018-05-13T10:29:01.353Z,5.80
2018-05-13T10:31:28.949Z,4.73
2018-05-13T10:33:56.572Z,4.60
2018-05-13T10:36:24.248Z,4.90
2018-05-13T10:38:51.844Z,5.07
2018-05-13T10:41:19.569Z,4.80
2018-05-13T10:43:47.203Z,5.07
2018-05-13T10:46:14.948Z,4.80
2018-05-13T10:48:42.629Z,5.77
2018-05-13T10:51:10.337Z,4.30
2018-05-13T10:53:37.971Z,5.00
2018-05-13T10:56:05.626Z,4.73
2018-05-13T10:58:33.275Z,5.50
2018-05-13T11:01:00.902Z,7.97
2018-05-13T11:03:28.559Z,5.27
2018-05-13T11:05:56.215Z,4.93
2018-05-13T11:08:23.855Z,4.63
2018-05-13T11:10:51.511Z,4.27
2018-05-13T11:13:19.217Z,4.40
2018-05-13T11:15:46.892Z,5.53
2018-05-13T11:18:14.535Z,3.87
2018-05-13T11:20:42.259Z,4.47
2018-05-13T11:23:09.919Z,3.70
2018-05-13T11:25:37.563Z,4.37
2018-05-13T11:28:05.421Z,4.73
2018-05-13T11:30:33.419Z,5.13
2018-05-13T11:33:01.096Z,4.77
2018-05-13T11:35:28.687Z,5.30
2018-05-13T11:37:56.351Z,4.10
2018-05-13T11:40:23.965Z,4.83
2018-05-13T11:42:51.670Z,4.53
2018-05-13T11:45:19.276Z,4.60
2018-05-13T11:47:46.905Z,5.40
2018-05-13T11:50:14.607Z,4.07
2018-05-13T11:52:43.407Z,4.27
2018-05-13T11:55:11.080Z,3.63
2018-05-13T11:57:38.778Z,4.13
2018-05-13T12:00:06.441Z,4.10
2018-05-13T12:02:34.091Z,4.47
2018-05-13T12:05:01.788Z,4.23
2018-05-13T12:07:29.379Z,4.17
2018-05-13T12:09:57.146Z,4.90
2018-05-13T12:12:24.728Z,4.30
2018-05-13T12:14:52.379Z,3.60
2018-05-13T12:17:20.128Z,3.70
2018-05-13T12:19:47.769Z,3.37
2018-05-13T12:22:15.428Z,3.67
2018-05-13T12:24:43.033Z,3.87
2018-05-13T12:27:10.799Z,3.10
2018-05-13T12:29:38.469Z,2.80
2018-05-13T12:32:06.070Z,2.90
2018-05-13T12:34:34.805Z,3.60
2018-05-13T12:37:02.690Z,3.77
2018-05-13T12:39:30.295Z,3.50
2018-05-13T12:41:57.950Z,3.50
2018-05-13T12:44:25.587Z,3.50
2018-05-13T12:46:53.238Z,3.60
2018-05-13T12:49:20.920Z,3.33
2018-05-13T12:51:48.640Z,3.37
2018-05-13T12:54:16.315Z,3.20
2018-05-13T12:56:44.003Z,3.10
2018-05-13T12:59:11.645Z,3.47
2018-05-13T13:01:39.275Z,3.53
2018-05-13T13:04:06.964Z,3.10
2018-05-13T13:06:34.565Z,3.23
2018-05-13T13:09:02.261Z,3.50
2018-05-13T13:11:29.921Z,3.13
2018-05-13T13:13:57.604Z,3.47
2018-05-13T13:16:25.363Z,3.37
2018-05-13T13:18:53.014Z,3.43
2018-05-13T13:21:20.682Z,3.40
2018-05-13T13:23:48.427Z,3.80
2018-05-13T13:26:16.025Z,3.37
2018-05-13T13:28:43.696Z,3.40
2018-05-13T13:31:11.351Z,3.23
2018-05-13T13:33:39.018Z,3.57
2018-05-13T13:36:06.664Z,4.10
2018-05-13T13:38:34.308Z,3.27
2018-05-13T13:41:01.929Z,2.87
2018-05-13T13:43:29.623Z,2.77
2018-05-13T13:45:57.293Z,3.50
2018-05-13T13:48:24.908Z,3.27
2018-05-13T13:50:52.589Z,3.53
2018-05-13T13:53:20.251Z,3.20
2018-05-13T13:55:47.877Z,3.13
2018-05-13T13:58:15.529Z,3.20
2018-05-13T14:00:43.216Z,2.90
2018-05-13T14:03:10.899Z,3.33
2018-05-13T14:05:38.522Z,2.37
2018-05-13T14:08:06.229Z,2.53
2018-05-13T14:10:35.072Z,3.10
2018-05-13T14:13:02.828Z,3.90
2018-05-13T14:15:30.446Z,3.20
2018-05-13T14:17:58.146Z,3.43
2018-05-13T14:20:25.805Z,3.77
2018-05-13T14:22:53.518Z,3.47
2018-05-13T14:25:21.250Z,4.50
2018-05-13T14:27:49.001Z,4.03
2018-05-13T14:30:16.647Z,3.50
2018-05-13T14:32:44.266Z,4.70
2018-05-13T14:35:11.922Z,3.60
2018-05-13T14:37:39.594Z,4.23
2018-05-13T14:40:07.253Z,4.23
2018-05-13T14:42:34.926Z,4.83
2018-05-13T14:45:03.590Z,4.20
2018-05-13T14:47:31.550Z,3.93
2018-05-13T14:49:59.239Z,4.83
2018-05-13T14:52:27.865Z,4.73
2018-05-13T14:54:55.614Z,4.30
2018-05-13T14:57:24.583Z,4.27
2018-05-13T14:59:53.527Z,4.33
2018-05-13T15:02:21.953Z,3.90
2018-05-13T15:04:50.630Z,3.93
2018-05-13T15:07:31.163Z,3.90
2018-05-13T15:09:58.881Z,3.63
2018-05-13T15:12:26.557Z,3.40
2018-05-13T15:14:54.572Z,4.73
2018-05-13T15:17:22.269Z,5.33
2018-05-13T15:19:51.583Z,5.13
2018-05-13T15:22:19.416Z,4.90
2018-05-13T15:24:47.133Z,5.30
2018-05-13T15:27:15.767Z,5.00
2018-05-13T15:29:43.469Z,4.20
2018-05-13T15:32:12.425Z,4.40
2018-05-13T15:34:40.525Z,4.30
2018-05-13T15:37:08.352Z,4.73
2018-05-13T15:39:36.011Z,4.87
2018-05-13T15:42:03.817Z,5.23
2018-05-13T15:44:31.488Z,3.57
2018-05-13T15:47:00.597Z,4.70
2018-05-13T15:49:28.301Z,4.43
2018-05-13T15:51:56.666Z,4.47
2018-05-13T15:54:26.413Z,4.37
2018-05-13T15:56:55.471Z,4.90
2018-05-13T15:59:24.139Z,4.70
2018-05-13T16:01:51.911Z,4.50
2018-05-13T16:04:19.642Z,4.63
2018-05-13T16:06:47.657Z,4.63
2018-05-13T16:09:15.342Z,4.13
2018-05-13T16:11:43.689Z,4.80
2018-05-13T16:14:12.466Z,4.50
2018-05-13T16:16:40.113Z,4.70
2018-05-13T16:19:10.008Z,4.03
2018-05-13T16:21:37.735Z,4.87
2018-05-13T16:24:05.475Z,5.27
2018-05-13T16:26:33.358Z,4.40
2018-05-13T16:29:01.088Z,4.50
2018-05-13T16:31:28.849Z,4.40
2018-05-13T16:33:56.706Z,5.63
2018-05-13T16:36:25.128Z,4.37
2018-05-13T16:38:53.651Z,4.73
2018-05-13T16:41:21.319Z,5.07
2018-05-13T16:43:49.089Z,4.50
2018-05-13T16:46:16.816Z,4.43
2018-05-13T16:48:44.487Z,4.70
2018-05-13T16:51:12.355Z,5.30
2018-05-13T16:53:41.157Z,4.70
2018-05-13T16:56:08.886Z,4.93
2018-05-13T16:58:36.572Z,4.17
2018-05-13T17:01:04.274Z,4.70
2018-05-13T17:03:31.978Z,4.60
2018-05-13T17:06:00.725Z,4.47
2018-05-13T17:08:28.438Z,5.07
2018-05-13T17:10:56.081Z,5.97
2018-05-13T17:13:23.851Z,5.13
2018-05-13T17:15:51.609Z,5.43
2018-05-13T17:18:19.347Z,4.43
2018-05-13T17:20:47.093Z,4.90
2018-05-13T17:23:14.694Z,5.63
2018-05-13T17:25:42.415Z,5.87
2018-05-13T17:28:11.857Z,5.97
2018-05-13T17:30:39.721Z,5.50
2018-05-13T17:33:07.434Z,5.50
2018-05-13T17:35:35.117Z,5.20
2018-05-13T17:38:02.740Z,4.20
2018-05-13T17:40:30.675Z,4.40
2018-05-13T17:42:58.370Z,3.90
2018-05-13T17:45:26.105Z,2.80
2018-05-13T17:47:53.953Z,3.20
2018-05-13T17:50:21.669Z,3.37
2018-05-13T17:52:49.389Z,3.00
2018-05-13T17:55:17.827Z,3.07
2018-05-13T17:57:45.675Z,2.57
2018-05-13T18:00:13.514Z,3.17
2018-05-13T18:02:41.593Z,3.27
2018-05-13T18:05:11.219Z,3.40
2018-05-13T18:07:38.960Z,3.90
2018-05-13T18:10:06.679Z,4.10
2018-05-13T18:12:34.371Z,2.90
2018-05-13T18:15:02.089Z,3.20
2018-05-13T18:17:29.769Z,3.20
2018-05-13T18:19:57.684Z,3.73
2018-05-13T18:22:25.853Z,3.20
2018-05-13T18:24:54.211Z,3.23
2018-05-13T18:27:23.567Z,3.47
2018-05-13T18:29:51.381Z,3.50
2018-05-13T18:32:19.116Z,3.03
2018-05-13T18:34:47.958Z,3.13
2018-05-13T18:37:16.069Z,3.93
2018-05-13T18:39:44.617Z,4.10
2018-05-13T18:42:14.430Z,3.30
2018-05-13T18:44:43.725Z,3.97
2018-05-13T18:47:11.654Z,3.10
2018-05-13T18:49:39.513Z,3.27
2018-05-13T18:52:08.239Z,4.30
2018-05-13T18:54:36.433Z,3.60
2018-05-13T18:57:04.499Z,3.60
2018-05-13T18:59:34.328Z,2.87
2018-05-13T19:02:02.268Z,2.40
2018-05-13T19:04:30.228Z,3.00
2018-05-13T19:06:58.672Z,2.80
2018-05-13T19:09:26.870Z,2.93
2018-05-13T19:11:54.874Z,3.00
2018-05-13T19:14:23.274Z,2.77
2018-05-13T19:16:52.010Z,2.50
2018-05-13T19:19:20.023Z,2.50
2018-05-13T19:21:47.770Z,2.60
2018-05-13T19:24:16.766Z,2.50
2018-05-13T19:26:44.573Z,2.80
2018-05-13T19:29:12.510Z,2.47
2018-05-13T19:31:41.617Z,2.27
2018-05-13T19:34:09.521Z,2.73
2018-05-13T19:36:38.458Z,2.77
2018-05-13T19:39:06.569Z,2.67
2018-05-13T19:41:34.243Z,2.40
2018-05-13T19:44:01.962Z,2.50
2018-05-13T19:46:29.971Z,3.20
2018-05-13T19:48:57.733Z,3.30
2018-05-13T19:51:26.779Z,2.07
2018-05-13T19:53:57.050Z,2.60
2018-05-13T19:56:27.380Z,2.10
2018-05-13T19:58:56.549Z,2.57
2018-05-13T20:01:26.560Z,2.17
2018-05-13T20:03:55.308Z,2.83
2018-05-13T20:06:25.093Z,3.10
2018-05-13T20:08:56.291Z,2.17
2018-05-13T20:11:24.024Z,2.70
2018-05-13T20:13:51.737Z,2.20
2018-05-13T20:16:20.250Z,2.57
2018-05-13T20:18:48.023Z,2.80
2018-05-13T20:21:15.684Z,2.50
2018-05-13T20:23:43.368Z,2.70
2018-05-13T20:26:11.636Z,2.63
2018-05-13T20:28:40.759Z,5.60
2018-05-13T20:31:08.500Z,3.60
2018-05-13T20:33:36.259Z,2.83
2018-05-13T20:36:04.075Z,2.03
2018-05-13T20:38:31.805Z,2.57
2018-05-13T20:40:59.493Z,2.37
2018-05-13T20:43:27.272Z,2.87
2018-05-13T20:45:54.949Z,2.20
2018-05-13T20:48:22.625Z,2.50
2018-05-13T20:50:50.839Z,2.77
2018-05-13T20:53:18.519Z,2.80
2018-05-13T20:55:46.195Z,2.70
2018-05-13T20:58:14.747Z,3.10
2018-05-13T21:00:42.443Z,2.20
2018-05-13T21:03:10.104Z,2.23
2018-05-13T21:05:37.787Z,2.77
2018-05-13T21:08:05.513Z,2.97
2018-05-13T21:10:33.209Z,2.83
2018-05-13T21:13:00.841Z,2.90
2018-05-13T21:15:28.489Z,2.77
2018-05-13T21:17:56.146Z,3.80
2018-05-13T21:20:23.829Z,3.50
2018-05-13T21:22:51.451Z,4.10
2018-05-13T21:25:19.169Z,3.17
2018-05-13T21:27:46.915Z,3.30
2018-05-13T21:30:14.537Z,3.67
2018-05-13T21:32:42.237Z,3.70
2018-05-13T21:35:10.549Z,3.53
2018-05-13T21:37:38.262Z,2.80
2018-05-13T21:40:05.962Z,3.73
2018-05-13T21:42:33.608Z,3.47
2018-05-13T21:45:01.279Z,3.63
2018-05-13T21:47:28.950Z,4.67
2018-05-13T21:49:56.595Z,4.40
2018-05-13T21:52:24.201Z,3.77
2018-05-13T21:54:51.899Z,4.00
2018-05-13T21:57:20.184Z,4.03
2018-05-13T21:59:47.851Z,4.07
2018-05-13T22:02:15.555Z,3.93
2018-05-13T22:04:54.881Z,4.33
2018-05-13T22:07:22.517Z,4.00
2018-05-13T22:09:50.190Z,4.80
2018-05-13T22:12:17.849Z,4.43
2018-05-13T22:14:45.479Z,4.03
2018-05-13T22:17:13.076Z,4.27
2018-05-13T22:19:40.712Z,4.40
2018-05-13T22:22:08.416Z,5.17
2018-05-13T22:24:36.199Z,4.87
2018-05-13T22:27:03.824Z,6.20
2018-05-13T22:29:31.493Z,4.00
2018-05-13T22:31:59.148Z,3.97
2018-05-13T22:34:26.745Z,4.90
2018-05-13T22:36:54.425Z,5.50
2018-05-13T22:39:22.017Z,5.80
2018-05-13T22:41:49.667Z,5.40
2018-05-13T22:44:17.252Z,4.93
2018-05-13T22:46:45.861Z,5.60
2018-05-13T22:49:13.493Z,6.30
2018-05-13T22:51:41.165Z,6.40
2018-05-13T22:54:08.814Z,5.90
2018-05-13T22:56:36.395Z,4.60
2018-05-13T22:59:05.090Z,5.70
2018-05-13T23:01:32.777Z,5.50
2018-05-13T23:04:00.422Z,5.30
2018-05-13T23:06:30.996Z,5.17
2018-05-13T23:08:58.619Z,6.60
2018-05-13T23:11:26.855Z,5.30
2018-05-13T23:13:54.600Z,5.87
2018-05-13T23:16:22.257Z,5.10
2018-05-13T23:18:49.855Z,6.10
2018-05-13T23:21:18.123Z,6.77
2018-05-13T23:23:45.727Z,6.07
2018-05-13T23:26:13.325Z,5.43
2018-05-13T23:28:42.388Z,5.37
2018-05-13T23:31:09.994Z,5.83
2018-05-13T23:33:37.798Z,5.20
2018-05-13T23:36:05.414Z,5.67
2018-05-13T23:38:33.073Z,4.90
2018-05-13T23:41:01.716Z,5.33
2018-05-13T23:43:29.631Z,5.30
2018-05-13T23:45:57.205Z,6.50
2018-05-13T23:48:24.839Z,5.00
2018-05-13T23:50:52.473Z,5.43
2018-05-13T23:53:20.093Z,6.20
2018-05-13T23:55:47.956Z,5.03
2018-05-13T23:58:15.667Z,5.03
